sensor_id;sensor_type;location;lat;lon;timestamp;P1;durP1;ratioP1;P2;durP2;ratioP2
19339;SDS011;9804;52.350;6.684;2022-07-17T00:01:58;5.47;;;2.30;;
19339;SDS011;9804;52.350;6.684;2022-07-17T00:04:24;8.65;;;2.60;;
19339;SDS011;9804;52.350;6.684;2022-07-17T00:06:50;11.20;;;3.17;;
19339;SDS011;9804;52.350;6.684;2022-07-17T00:09:15;6.00;;;3.08;;
19339;SDS011;9804;52.350;6.684;2022-07-17T00:11:40;9.40;;;2.50;;
19339;SDS011;9804;52.350;6.684;2022-07-17T00:14:06;7.60;;;2.42;;
19339;SDS011;9804;52.350;6.684;2022-07-17T00:16:31;8.70;;;2.83;;
19339;SDS011;9804;52.350;6.684;2022-07-17T00:18:57;12.20;;;2.70;;
19339;SDS011;9804;52.350;6.684;2022-07-17T00:21:22;9.00;;;2.65;;
19339;SDS011;9804;52.350;6.684;2022-07-17T00:23:47;7.45;;;2.90;;
19339;SDS011;9804;52.350;6.684;2022-07-17T00:26:13;7.82;;;2.83;;
19339;SDS011;9804;52.350;6.684;2022-07-17T00:28:38;5.85;;;2.67;;
19339;SDS011;9804;52.350;6.684;2022-07-17T00:31:04;5.47;;;2.70;;
19339;SDS011;9804;52.350;6.684;2022-07-17T00:33:29;4.75;;;2.42;;
19339;SDS011;9804;52.350;6.684;2022-07-17T00:35:54;7.90;;;3.20;;
19339;SDS011;9804;52.350;6.684;2022-07-17T00:38:20;7.22;;;2.85;;
19339;SDS011;9804;52.350;6.684;2022-07-17T00:40:45;5.40;;;2.75;;
19339;SDS011;9804;52.350;6.684;2022-07-17T00:43:10;8.57;;;3.20;;
19339;SDS011;9804;52.350;6.684;2022-07-17T00:45:36;6.07;;;2.72;;
19339;SDS011;9804;52.350;6.684;2022-07-17T00:48:03;9.30;;;2.42;;
19339;SDS011;9804;52.350;6.684;2022-07-17T00:50:37;8.68;;;2.78;;
19339;SDS011;9804;52.350;6.684;2022-07-17T00:53:05;8.55;;;2.90;;
19339;SDS011;9804;52.350;6.684;2022-07-17T00:55:31;7.07;;;2.65;;
19339;SDS011;9804;52.350;6.684;2022-07-17T00:57:57;11.52;;;2.90;;
19339;SDS011;9804;52.350;6.684;2022-07-17T01:00:26;6.43;;;3.00;;
19339;SDS011;9804;52.350;6.684;2022-07-17T01:02:53;7.95;;;3.03;;
19339;SDS011;9804;52.350;6.684;2022-07-17T01:05:19;5.88;;;3.28;;
19339;SDS011;9804;52.350;6.684;2022-07-17T01:07:46;7.43;;;3.15;;
19339;SDS011;9804;52.350;6.684;2022-07-17T01:10:12;6.78;;;3.35;;
19339;SDS011;9804;52.350;6.684;2022-07-17T01:12:41;8.05;;;3.30;;
19339;SDS011;9804;52.350;6.684;2022-07-17T01:15:08;4.90;;;3.15;;
19339;SDS011;9804;52.350;6.684;2022-07-17T01:17:34;8.80;;;3.40;;
19339;SDS011;9804;52.350;6.684;2022-07-17T01:20:01;9.35;;;2.97;;
19339;SDS011;9804;52.350;6.684;2022-07-17T01:22:27;10.82;;;3.33;;
19339;SDS011;9804;52.350;6.684;2022-07-17T01:24:53;7.10;;;3.03;;
19339;SDS011;9804;52.350;6.684;2022-07-17T01:27:18;7.78;;;3.58;;
19339;SDS011;9804;52.350;6.684;2022-07-17T01:29:43;6.30;;;3.17;;
19339;SDS011;9804;52.350;6.684;2022-07-17T01:32:09;7.47;;;2.95;;
19339;SDS011;9804;52.350;6.684;2022-07-17T01:34:35;7.30;;;3.15;;
19339;SDS011;9804;52.350;6.684;2022-07-17T01:37:00;10.77;;;3.28;;
19339;SDS011;9804;52.350;6.684;2022-07-17T01:39:25;8.20;;;3.35;;
19339;SDS011;9804;52.350;6.684;2022-07-17T01:42:10;8.73;;;4.00;;
19339;SDS011;9804;52.350;6.684;2022-07-17T01:44:35;6.25;;;3.47;;
19339;SDS011;9804;52.350;6.684;2022-07-17T01:47:01;9.45;;;4.05;;
19339;SDS011;9804;52.350;6.684;2022-07-17T01:49:26;7.57;;;3.30;;
19339;SDS011;9804;52.350;6.684;2022-07-17T01:51:51;7.55;;;3.58;;
19339;SDS011;9804;52.350;6.684;2022-07-17T01:54:17;7.03;;;3.85;;
19339;SDS011;9804;52.350;6.684;2022-07-17T01:56:42;7.88;;;3.53;;
19339;SDS011;9804;52.350;6.684;2022-07-17T01:59:08;8.65;;;3.65;;
19339;SDS011;9804;52.350;6.684;2022-07-17T02:01:33;6.80;;;3.38;;
19339;SDS011;9804;52.350;6.684;2022-07-17T02:03:58;8.68;;;3.20;;
19339;SDS011;9804;52.350;6.684;2022-07-17T02:06:24;10.15;;;3.97;;
19339;SDS011;9804;52.350;6.684;2022-07-17T02:08:49;5.82;;;3.35;;
19339;SDS011;9804;52.350;6.684;2022-07-17T02:11:16;9.75;;;3.60;;
19339;SDS011;9804;52.350;6.684;2022-07-17T02:13:42;8.32;;;4.35;;
19339;SDS011;9804;52.350;6.684;2022-07-17T02:16:07;6.78;;;3.80;;
19339;SDS011;9804;52.350;6.684;2022-07-17T02:18:32;13.02;;;4.03;;
19339;SDS011;9804;52.350;6.684;2022-07-17T02:20:59;12.02;;;4.97;;
19339;SDS011;9804;52.350;6.684;2022-07-17T02:23:25;7.82;;;4.03;;
19339;SDS011;9804;52.350;6.684;2022-07-17T02:25:50;8.57;;;3.92;;
19339;SDS011;9804;52.350;6.684;2022-07-17T02:28:15;9.93;;;3.92;;
19339;SDS011;9804;52.350;6.684;2022-07-17T02:30:41;7.97;;;3.92;;
19339;SDS011;9804;52.350;6.684;2022-07-17T02:33:06;8.85;;;3.90;;
19339;SDS011;9804;52.350;6.684;2022-07-17T02:35:32;8.18;;;3.85;;
19339;SDS011;9804;52.350;6.684;2022-07-17T02:37:57;8.85;;;4.28;;
19339;SDS011;9804;52.350;6.684;2022-07-17T02:40:23;9.55;;;4.13;;
19339;SDS011;9804;52.350;6.684;2022-07-17T02:42:48;10.93;;;3.75;;
19339;SDS011;9804;52.350;6.684;2022-07-17T02:45:13;6.85;;;4.10;;
19339;SDS011;9804;52.350;6.684;2022-07-17T02:47:39;8.75;;;3.97;;
19339;SDS011;9804;52.350;6.684;2022-07-17T02:50:05;5.47;;;3.90;;
19339;SDS011;9804;52.350;6.684;2022-07-17T02:52:32;6.47;;;3.78;;
19339;SDS011;9804;52.350;6.684;2022-07-17T02:54:57;9.00;;;3.88;;
19339;SDS011;9804;52.350;6.684;2022-07-17T02:57:22;7.18;;;4.00;;
19339;SDS011;9804;52.350;6.684;2022-07-17T02:59:48;5.68;;;3.38;;
19339;SDS011;9804;52.350;6.684;2022-07-17T03:02:14;6.05;;;3.63;;
19339;SDS011;9804;52.350;6.684;2022-07-17T03:04:39;7.47;;;3.70;;
19339;SDS011;9804;52.350;6.684;2022-07-17T03:07:04;5.65;;;3.50;;
19339;SDS011;9804;52.350;6.684;2022-07-17T03:09:30;9.15;;;3.63;;
19339;SDS011;9804;52.350;6.684;2022-07-17T03:11:55;7.20;;;3.83;;
19339;SDS011;9804;52.350;6.684;2022-07-17T03:14:21;6.45;;;3.83;;
19339;SDS011;9804;52.350;6.684;2022-07-17T03:16:46;6.78;;;3.47;;
19339;SDS011;9804;52.350;6.684;2022-07-17T03:19:12;5.25;;;3.67;;
19339;SDS011;9804;52.350;6.684;2022-07-17T03:21:37;6.30;;;4.00;;
19339;SDS011;9804;52.350;6.684;2022-07-17T03:24:03;8.85;;;4.57;;
19339;SDS011;9804;52.350;6.684;2022-07-17T03:26:29;9.13;;;4.18;;
19339;SDS011;9804;52.350;6.684;2022-07-17T03:28:54;5.40;;;3.90;;
19339;SDS011;9804;52.350;6.684;2022-07-17T03:31:20;6.65;;;4.53;;
19339;SDS011;9804;52.350;6.684;2022-07-17T03:33:45;7.50;;;3.85;;
19339;SDS011;9804;52.350;6.684;2022-07-17T03:36:10;5.55;;;3.88;;
19339;SDS011;9804;52.350;6.684;2022-07-17T03:38:35;7.20;;;4.30;;
19339;SDS011;9804;52.350;6.684;2022-07-17T03:41:01;10.23;;;5.07;;
19339;SDS011;9804;52.350;6.684;2022-07-17T03:43:26;6.68;;;4.47;;
19339;SDS011;9804;52.350;6.684;2022-07-17T03:45:51;11.48;;;5.05;;
19339;SDS011;9804;52.350;6.684;2022-07-17T03:48:17;6.25;;;4.85;;
19339;SDS011;9804;52.350;6.684;2022-07-17T03:50:43;7.43;;;4.68;;
19339;SDS011;9804;52.350;6.684;2022-07-17T03:53:09;10.68;;;4.25;;
19339;SDS011;9804;52.350;6.684;2022-07-17T03:55:34;6.32;;;4.63;;
19339;SDS011;9804;52.350;6.684;2022-07-17T03:58:00;7.57;;;4.65;;
19339;SDS011;9804;52.350;6.684;2022-07-17T04:00:25;9.02;;;4.63;;
19339;SDS011;9804;52.350;6.684;2022-07-17T04:02:51;6.20;;;4.80;;
19339;SDS011;9804;52.350;6.684;2022-07-17T04:05:16;8.85;;;5.18;;
19339;SDS011;9804;52.350;6.684;2022-07-17T04:07:42;7.25;;;4.15;;
19339;SDS011;9804;52.350;6.684;2022-07-17T04:10:09;8.35;;;4.95;;
19339;SDS011;9804;52.350;6.684;2022-07-17T04:12:35;7.50;;;4.82;;
19339;SDS011;9804;52.350;6.684;2022-07-17T04:15:01;11.43;;;4.65;;
19339;SDS011;9804;52.350;6.684;2022-07-17T04:17:27;6.22;;;4.20;;
19339;SDS011;9804;52.350;6.684;2022-07-17T04:19:53;7.40;;;4.78;;
19339;SDS011;9804;52.350;6.684;2022-07-17T04:22:18;7.47;;;4.22;;
19339;SDS011;9804;52.350;6.684;2022-07-17T04:24:44;7.82;;;4.82;;
19339;SDS011;9804;52.350;6.684;2022-07-17T04:27:10;10.95;;;4.78;;
19339;SDS011;9804;52.350;6.684;2022-07-17T04:29:36;7.93;;;4.25;;
19339;SDS011;9804;52.350;6.684;2022-07-17T04:32:02;4.88;;;4.35;;
19339;SDS011;9804;52.350;6.684;2022-07-17T04:34:28;7.28;;;4.68;;
19339;SDS011;9804;52.350;6.684;2022-07-17T04:36:54;8.25;;;4.22;;
19339;SDS011;9804;52.350;6.684;2022-07-17T04:39:20;8.38;;;3.85;;
19339;SDS011;9804;52.350;6.684;2022-07-17T04:41:45;9.50;;;4.47;;
19339;SDS011;9804;52.350;6.684;2022-07-17T04:44:11;7.03;;;4.35;;
19339;SDS011;9804;52.350;6.684;2022-07-17T04:46:36;6.70;;;4.43;;
19339;SDS011;9804;52.350;6.684;2022-07-17T04:49:01;5.43;;;4.38;;
19339;SDS011;9804;52.350;6.684;2022-07-17T04:51:27;7.18;;;4.57;;
19339;SDS011;9804;52.350;6.684;2022-07-17T04:53:52;9.07;;;4.72;;
19339;SDS011;9804;52.350;6.684;2022-07-17T04:56:19;7.30;;;4.65;;
19339;SDS011;9804;52.350;6.684;2022-07-17T04:58:45;7.22;;;4.25;;
19339;SDS011;9804;52.350;6.684;2022-07-17T05:01:10;9.10;;;4.10;;
19339;SDS011;9804;52.350;6.684;2022-07-17T05:03:35;8.85;;;4.75;;
19339;SDS011;9804;52.350;6.684;2022-07-17T05:06:02;6.60;;;4.45;;
19339;SDS011;9804;52.350;6.684;2022-07-17T05:08:28;6.95;;;4.43;;
19339;SDS011;9804;52.350;6.684;2022-07-17T05:10:53;7.25;;;4.70;;
19339;SDS011;9804;52.350;6.684;2022-07-17T05:13:19;8.05;;;4.70;;
19339;SDS011;9804;52.350;6.684;2022-07-17T05:15:44;8.63;;;4.50;;
19339;SDS011;9804;52.350;6.684;2022-07-17T05:18:09;6.65;;;4.40;;
19339;SDS011;9804;52.350;6.684;2022-07-17T05:20:35;7.10;;;4.50;;
19339;SDS011;9804;52.350;6.684;2022-07-17T05:23:00;7.43;;;4.90;;
19339;SDS011;9804;52.350;6.684;2022-07-17T05:25:26;7.03;;;4.45;;
19339;SDS011;9804;52.350;6.684;2022-07-17T05:27:51;7.05;;;4.22;;
19339;SDS011;9804;52.350;6.684;2022-07-17T05:30:16;5.30;;;4.30;;
19339;SDS011;9804;52.350;6.684;2022-07-17T05:32:42;7.45;;;4.03;;
19339;SDS011;9804;52.350;6.684;2022-07-17T05:35:07;6.43;;;4.72;;
19339;SDS011;9804;52.350;6.684;2022-07-17T05:37:33;9.93;;;4.95;;
19339;SDS011;9804;52.350;6.684;2022-07-17T05:39:58;11.43;;;5.03;;
19339;SDS011;9804;52.350;6.684;2022-07-17T05:42:24;12.00;;;4.63;;
19339;SDS011;9804;52.350;6.684;2022-07-17T05:44:49;8.70;;;4.40;;
19339;SDS011;9804;52.350;6.684;2022-07-17T05:47:15;7.57;;;3.85;;
19339;SDS011;9804;52.350;6.684;2022-07-17T05:49:40;8.30;;;4.10;;
19339;SDS011;9804;52.350;6.684;2022-07-17T05:52:05;8.82;;;4.10;;
19339;SDS011;9804;52.350;6.684;2022-07-17T05:54:31;5.70;;;3.80;;
19339;SDS011;9804;52.350;6.684;2022-07-17T05:57:00;9.77;;;3.58;;
19339;SDS011;9804;52.350;6.684;2022-07-17T05:59:26;6.88;;;3.15;;
19339;SDS011;9804;52.350;6.684;2022-07-17T06:01:51;7.80;;;2.83;;
19339;SDS011;9804;52.350;6.684;2022-07-17T06:04:17;9.15;;;3.30;;
19339;SDS011;9804;52.350;6.684;2022-07-17T06:06:42;9.77;;;3.13;;
19339;SDS011;9804;52.350;6.684;2022-07-17T06:09:08;6.82;;;3.10;;
19339;SDS011;9804;52.350;6.684;2022-07-17T06:11:33;5.47;;;3.15;;
19339;SDS011;9804;52.350;6.684;2022-07-17T06:13:59;8.48;;;2.92;;
19339;SDS011;9804;52.350;6.684;2022-07-17T06:16:24;6.28;;;2.90;;
19339;SDS011;9804;52.350;6.684;2022-07-17T06:18:49;6.80;;;3.10;;
19339;SDS011;9804;52.350;6.684;2022-07-17T06:21:15;9.18;;;3.13;;
19339;SDS011;9804;52.350;6.684;2022-07-17T06:23:40;7.50;;;3.00;;
19339;SDS011;9804;52.350;6.684;2022-07-17T06:26:05;6.20;;;3.20;;
19339;SDS011;9804;52.350;6.684;2022-07-17T06:28:30;8.45;;;3.33;;
19339;SDS011;9804;52.350;6.684;2022-07-17T06:30:56;8.45;;;3.33;;
19339;SDS011;9804;52.350;6.684;2022-07-17T06:33:21;9.20;;;3.25;;
19339;SDS011;9804;52.350;6.684;2022-07-17T06:35:49;8.63;;;3.40;;
19339;SDS011;9804;52.350;6.684;2022-07-17T06:38:14;6.63;;;3.20;;
19339;SDS011;9804;52.350;6.684;2022-07-17T06:40:40;11.57;;;3.00;;
19339;SDS011;9804;52.350;6.684;2022-07-17T06:43:05;9.70;;;3.47;;
19339;SDS011;9804;52.350;6.684;2022-07-17T06:45:31;9.73;;;3.17;;
19339;SDS011;9804;52.350;6.684;2022-07-17T06:47:57;10.52;;;3.33;;
19339;SDS011;9804;52.350;6.684;2022-07-17T06:50:22;8.55;;;2.45;;
19339;SDS011;9804;52.350;6.684;2022-07-17T06:52:48;5.75;;;1.95;;
19339;SDS011;9804;52.350;6.684;2022-07-17T06:55:13;9.40;;;1.92;;
19339;SDS011;9804;52.350;6.684;2022-07-17T06:57:38;6.28;;;1.50;;
19339;SDS011;9804;52.350;6.684;2022-07-17T07:00:04;5.38;;;2.38;;
19339;SDS011;9804;52.350;6.684;2022-07-17T07:02:30;10.50;;;2.05;;
19339;SDS011;9804;52.350;6.684;2022-07-17T07:04:55;6.55;;;1.35;;
19339;SDS011;9804;52.350;6.684;2022-07-17T07:07:20;9.77;;;1.70;;
19339;SDS011;9804;52.350;6.684;2022-07-17T07:09:46;8.35;;;2.17;;
19339;SDS011;9804;52.350;6.684;2022-07-17T07:12:11;7.15;;;1.83;;
19339;SDS011;9804;52.350;6.684;2022-07-17T07:14:36;7.55;;;1.70;;
19339;SDS011;9804;52.350;6.684;2022-07-17T07:17:01;5.32;;;1.08;;
19339;SDS011;9804;52.350;6.684;2022-07-17T07:19:27;6.75;;;1.38;;
19339;SDS011;9804;52.350;6.684;2022-07-17T07:21:52;2.65;;;0.98;;
19339;SDS011;9804;52.350;6.684;2022-07-17T07:24:18;4.95;;;1.23;;
19339;SDS011;9804;52.350;6.684;2022-07-17T07:26:43;3.05;;;0.98;;
19339;SDS011;9804;52.350;6.684;2022-07-17T07:29:09;5.90;;;1.15;;
19339;SDS011;9804;52.350;6.684;2022-07-17T07:31:34;8.80;;;1.20;;
19339;SDS011;9804;52.350;6.684;2022-07-17T07:34:00;5.78;;;1.45;;
19339;SDS011;9804;52.350;6.684;2022-07-17T07:36:25;3.60;;;0.93;;
19339;SDS011;9804;52.350;6.684;2022-07-17T07:38:50;5.72;;;1.52;;
19339;SDS011;9804;52.350;6.684;2022-07-17T07:41:16;6.25;;;1.27;;
19339;SDS011;9804;52.350;6.684;2022-07-17T07:43:41;7.50;;;1.30;;
19339;SDS011;9804;52.350;6.684;2022-07-17T07:46:06;6.97;;;1.20;;
19339;SDS011;9804;52.350;6.684;2022-07-17T07:48:32;6.45;;;1.00;;
19339;SDS011;9804;52.350;6.684;2022-07-17T07:50:57;6.75;;;1.00;;
19339;SDS011;9804;52.350;6.684;2022-07-17T07:53:23;6.28;;;1.10;;
19339;SDS011;9804;52.350;6.684;2022-07-17T07:55:48;5.45;;;1.33;;
19339;SDS011;9804;52.350;6.684;2022-07-17T07:58:14;2.83;;;1.02;;
19339;SDS011;9804;52.350;6.684;2022-07-17T08:00:40;3.25;;;0.93;;
19339;SDS011;9804;52.350;6.684;2022-07-17T08:03:08;5.40;;;1.13;;
19339;SDS011;9804;52.350;6.684;2022-07-17T08:05:34;5.05;;;1.27;;
19339;SDS011;9804;52.350;6.684;2022-07-17T08:07:59;7.15;;;1.58;;
19339;SDS011;9804;52.350;6.684;2022-07-17T08:10:25;3.65;;;1.00;;
19339;SDS011;9804;52.350;6.684;2022-07-17T08:12:51;4.63;;;0.85;;
19339;SDS011;9804;52.350;6.684;2022-07-17T08:15:18;4.47;;;1.10;;
19339;SDS011;9804;52.350;6.684;2022-07-17T08:17:45;4.57;;;1.08;;
19339;SDS011;9804;52.350;6.684;2022-07-17T08:20:12;5.05;;;0.95;;
19339;SDS011;9804;52.350;6.684;2022-07-17T08:22:38;4.85;;;0.80;;
19339;SDS011;9804;52.350;6.684;2022-07-17T08:25:04;4.18;;;1.10;;
19339;SDS011;9804;52.350;6.684;2022-07-17T08:27:36;6.07;;;0.95;;
19339;SDS011;9804;52.350;6.684;2022-07-17T08:30:03;6.93;;;1.75;;
19339;SDS011;9804;52.350;6.684;2022-07-17T08:32:30;6.40;;;0.80;;
19339;SDS011;9804;52.350;6.684;2022-07-17T08:34:55;3.15;;;1.38;;
19339;SDS011;9804;52.350;6.684;2022-07-17T08:37:20;6.00;;;0.80;;
19339;SDS011;9804;52.350;6.684;2022-07-17T08:39:46;5.75;;;0.80;;
19339;SDS011;9804;52.350;6.684;2022-07-17T08:42:11;4.07;;;1.05;;
19339;SDS011;9804;52.350;6.684;2022-07-17T08:44:41;6.60;;;1.45;;
19339;SDS011;9804;52.350;6.684;2022-07-17T08:47:06;3.55;;;0.93;;
19339;SDS011;9804;52.350;6.684;2022-07-17T08:49:32;4.70;;;1.10;;
19339;SDS011;9804;52.350;6.684;2022-07-17T08:52:00;7.28;;;1.75;;
19339;SDS011;9804;52.350;6.684;2022-07-17T08:54:26;5.20;;;1.10;;
19339;SDS011;9804;52.350;6.684;2022-07-17T08:56:51;4.53;;;1.33;;
19339;SDS011;9804;52.350;6.684;2022-07-17T08:59:16;6.72;;;1.30;;
19339;SDS011;9804;52.350;6.684;2022-07-17T09:01:42;2.22;;;0.90;;
19339;SDS011;9804;52.350;6.684;2022-07-17T09:04:07;5.28;;;1.27;;
19339;SDS011;9804;52.350;6.684;2022-07-17T09:06:34;2.75;;;1.00;;
19339;SDS011;9804;52.350;6.684;2022-07-17T09:11:41;5.28;;;1.00;;
19339;SDS011;9804;52.350;6.684;2022-07-17T09:14:08;6.45;;;0.90;;
19339;SDS011;9804;52.350;6.684;2022-07-17T09:16:34;5.03;;;0.93;;
19339;SDS011;9804;52.350;6.684;2022-07-17T09:19:00;5.85;;;1.33;;
19339;SDS011;9804;52.350;6.684;2022-07-17T09:21:26;4.82;;;1.35;;
19339;SDS011;9804;52.350;6.684;2022-07-17T09:23:59;1.70;;;0.63;;
19339;SDS011;9804;52.350;6.684;2022-07-17T09:26:35;3.25;;;1.00;;
19339;SDS011;9804;52.350;6.684;2022-07-17T09:29:02;7.22;;;1.05;;
19339;SDS011;9804;52.350;6.684;2022-07-17T09:31:29;6.80;;;1.20;;
19339;SDS011;9804;52.350;6.684;2022-07-17T09:33:56;3.13;;;1.17;;
19339;SDS011;9804;52.350;6.684;2022-07-17T09:36:22;5.70;;;1.05;;
19339;SDS011;9804;52.350;6.684;2022-07-17T09:38:48;8.73;;;1.27;;
19339;SDS011;9804;52.350;6.684;2022-07-17T09:41:17;3.22;;;1.02;;
19339;SDS011;9804;52.350;6.684;2022-07-17T09:43:49;5.22;;;1.10;;
19339;SDS011;9804;52.350;6.684;2022-07-17T09:46:23;6.75;;;1.20;;
19339;SDS011;9804;52.350;6.684;2022-07-17T09:48:54;7.70;;;1.70;;
19339;SDS011;9804;52.350;6.684;2022-07-17T09:51:25;2.40;;;1.00;;
19339;SDS011;9804;52.350;6.684;2022-07-17T09:53:56;3.88;;;1.23;;
19339;SDS011;9804;52.350;6.684;2022-07-17T09:56:23;6.15;;;1.05;;
19339;SDS011;9804;52.350;6.684;2022-07-17T09:58:51;5.55;;;1.08;;
19339;SDS011;9804;52.350;6.684;2022-07-17T10:01:22;6.40;;;1.10;;
19339;SDS011;9804;52.350;6.684;2022-07-17T10:03:48;4.50;;;0.90;;
19339;SDS011;9804;52.350;6.684;2022-07-17T10:06:15;3.13;;;0.90;;
19339;SDS011;9804;52.350;6.684;2022-07-17T10:08:40;6.70;;;0.90;;
19339;SDS011;9804;52.350;6.684;2022-07-17T10:11:09;4.45;;;0.90;;
19339;SDS011;9804;52.350;6.684;2022-07-17T10:13:39;2.92;;;0.88;;
19339;SDS011;9804;52.350;6.684;2022-07-17T10:16:06;4.97;;;1.30;;
19339;SDS011;9804;52.350;6.684;2022-07-17T10:18:34;5.55;;;1.02;;
19339;SDS011;9804;52.350;6.684;2022-07-17T10:21:09;7.70;;;1.17;;
19339;SDS011;9804;52.350;6.684;2022-07-17T10:23:35;6.47;;;1.00;;
19339;SDS011;9804;52.350;6.684;2022-07-17T10:26:01;4.13;;;1.00;;
19339;SDS011;9804;52.350;6.684;2022-07-17T10:28:43;2.75;;;1.00;;
19339;SDS011;9804;52.350;6.684;2022-07-17T10:31:10;4.55;;;1.48;;
19339;SDS011;9804;52.350;6.684;2022-07-17T10:33:58;4.45;;;0.98;;
19339;SDS011;9804;52.350;6.684;2022-07-17T10:36:34;4.72;;;1.02;;
19339;SDS011;9804;52.350;6.684;2022-07-17T10:39:13;3.05;;;0.93;;
19339;SDS011;9804;52.350;6.684;2022-07-17T10:41:39;4.25;;;1.00;;
19339;SDS011;9804;52.350;6.684;2022-07-17T10:44:05;3.97;;;1.00;;
19339;SDS011;9804;52.350;6.684;2022-07-17T10:46:30;3.88;;;0.85;;
19339;SDS011;9804;52.350;6.684;2022-07-17T10:48:55;3.63;;;1.10;;
19339;SDS011;9804;52.350;6.684;2022-07-17T10:51:24;4.72;;;1.08;;
19339;SDS011;9804;52.350;6.684;2022-07-17T10:53:49;5.80;;;1.30;;
19339;SDS011;9804;52.350;6.684;2022-07-17T10:56:15;3.65;;;1.15;;
19339;SDS011;9804;52.350;6.684;2022-07-17T10:58:42;5.20;;;1.10;;
19339;SDS011;9804;52.350;6.684;2022-07-17T11:03:41;3.45;;;0.98;;
19339;SDS011;9804;52.350;6.684;2022-07-17T11:06:14;4.15;;;1.25;;
19339;SDS011;9804;52.350;6.684;2022-07-17T11:08:54;2.67;;;0.90;;
19339;SDS011;9804;52.350;6.684;2022-07-17T11:14:18;3.50;;;0.80;;
19339;SDS011;9804;52.350;6.684;2022-07-17T11:16:55;2.40;;;1.02;;
19339;SDS011;9804;52.350;6.684;2022-07-17T11:19:27;2.17;;;0.70;;
19339;SDS011;9804;52.350;6.684;2022-07-17T11:21:53;5.05;;;1.00;;
19339;SDS011;9804;52.350;6.684;2022-07-17T11:24:20;3.13;;;1.10;;
19339;SDS011;9804;52.350;6.684;2022-07-17T11:26:48;2.78;;;0.82;;
19339;SDS011;9804;52.350;6.684;2022-07-17T11:29:14;3.95;;;0.80;;
19339;SDS011;9804;52.350;6.684;2022-07-17T11:31:40;4.13;;;1.00;;
19339;SDS011;9804;52.350;6.684;2022-07-17T11:34:06;2.17;;;0.70;;
19339;SDS011;9804;52.350;6.684;2022-07-17T11:36:37;3.50;;;0.77;;
19339;SDS011;9804;52.350;6.684;2022-07-17T11:39:15;4.07;;;0.90;;
19339;SDS011;9804;52.350;6.684;2022-07-17T11:41:47;3.53;;;0.73;;
19339;SDS011;9804;52.350;6.684;2022-07-17T11:44:16;4.18;;;0.90;;
19339;SDS011;9804;52.350;6.684;2022-07-17T11:46:44;3.63;;;0.80;;
19339;SDS011;9804;52.350;6.684;2022-07-17T11:49:22;1.88;;;0.75;;
19339;SDS011;9804;52.350;6.684;2022-07-17T11:51:49;3.70;;;0.80;;
19339;SDS011;9804;52.350;6.684;2022-07-17T11:54:15;1.92;;;0.73;;
19339;SDS011;9804;52.350;6.684;2022-07-17T11:56:42;6.85;;;0.88;;
19339;SDS011;9804;52.350;6.684;2022-07-17T11:59:23;3.08;;;0.70;;
19339;SDS011;9804;52.350;6.684;2022-07-17T12:01:49;3.90;;;0.80;;
19339;SDS011;9804;52.350;6.684;2022-07-17T12:04:15;3.83;;;0.82;;
19339;SDS011;9804;52.350;6.684;2022-07-17T12:06:41;1.90;;;0.52;;
19339;SDS011;9804;52.350;6.684;2022-07-17T12:09:07;3.38;;;0.93;;
19339;SDS011;9804;52.350;6.684;2022-07-17T12:11:33;3.28;;;1.08;;
19339;SDS011;9804;52.350;6.684;2022-07-17T12:14:09;1.75;;;1.02;;
19339;SDS011;9804;52.350;6.684;2022-07-17T12:16:35;3.72;;;1.00;;
19339;SDS011;9804;52.350;6.684;2022-07-17T12:19:08;2.03;;;0.63;;
19339;SDS011;9804;52.350;6.684;2022-07-17T12:21:52;2.05;;;0.95;;
19339;SDS011;9804;52.350;6.684;2022-07-17T12:24:25;1.50;;;0.75;;
19339;SDS011;9804;52.350;6.684;2022-07-17T12:26:56;3.80;;;0.73;;
19339;SDS011;9804;52.350;6.684;2022-07-17T12:29:23;4.15;;;0.90;;
19339;SDS011;9804;52.350;6.684;2022-07-17T12:31:49;1.63;;;0.75;;
19339;SDS011;9804;52.350;6.684;2022-07-17T12:34:24;3.90;;;0.95;;
19339;SDS011;9804;52.350;6.684;2022-07-17T12:36:49;6.50;;;1.00;;
19339;SDS011;9804;52.350;6.684;2022-07-17T12:39:15;1.17;;;0.55;;
19339;SDS011;9804;52.350;6.684;2022-07-17T12:41:40;1.27;;;0.70;;
19339;SDS011;9804;52.350;6.684;2022-07-17T12:44:05;3.35;;;0.90;;
19339;SDS011;9804;52.350;6.684;2022-07-17T12:46:31;2.35;;;0.80;;
19339;SDS011;9804;52.350;6.684;2022-07-17T12:48:56;4.15;;;0.70;;
19339;SDS011;9804;52.350;6.684;2022-07-17T12:51:21;2.22;;;0.88;;
19339;SDS011;9804;52.350;6.684;2022-07-17T12:53:47;2.22;;;0.77;;
19339;SDS011;9804;52.350;6.684;2022-07-17T12:56:12;2.38;;;0.85;;
19339;SDS011;9804;52.350;6.684;2022-07-17T12:58:38;2.10;;;0.80;;
19339;SDS011;9804;52.350;6.684;2022-07-17T13:01:03;3.92;;;0.90;;
19339;SDS011;9804;52.350;6.684;2022-07-17T13:03:29;4.88;;;0.98;;
19339;SDS011;9804;52.350;6.684;2022-07-17T13:05:55;5.30;;;0.90;;
19339;SDS011;9804;52.350;6.684;2022-07-17T13:08:20;4.93;;;0.70;;
19339;SDS011;9804;52.350;6.684;2022-07-17T13:10:46;2.50;;;0.63;;
19339;SDS011;9804;52.350;6.684;2022-07-17T13:13:11;4.13;;;0.90;;
19339;SDS011;9804;52.350;6.684;2022-07-17T13:15:37;2.92;;;0.70;;
19339;SDS011;9804;52.350;6.684;2022-07-17T13:18:02;3.95;;;1.25;;
19339;SDS011;9804;52.350;6.684;2022-07-17T13:20:28;2.13;;;0.90;;
19339;SDS011;9804;52.350;6.684;2022-07-17T13:22:54;3.20;;;1.10;;
19339;SDS011;9804;52.350;6.684;2022-07-17T13:25:19;2.95;;;1.10;;
19339;SDS011;9804;52.350;6.684;2022-07-17T13:27:45;2.92;;;0.90;;
19339;SDS011;9804;52.350;6.684;2022-07-17T13:30:10;3.83;;;1.10;;
19339;SDS011;9804;52.350;6.684;2022-07-17T13:32:36;3.55;;;0.77;;
19339;SDS011;9804;52.350;6.684;2022-07-17T13:35:02;4.38;;;1.10;;
19339;SDS011;9804;52.350;6.684;2022-07-17T13:37:27;3.17;;;1.10;;
19339;SDS011;9804;52.350;6.684;2022-07-17T13:39:53;2.97;;;1.00;;
19339;SDS011;9804;52.350;6.684;2022-07-17T13:42:18;3.65;;;1.02;;
19339;SDS011;9804;52.350;6.684;2022-07-17T13:44:43;2.72;;;1.10;;
19339;SDS011;9804;52.350;6.684;2022-07-17T13:47:09;2.85;;;1.00;;
19339;SDS011;9804;52.350;6.684;2022-07-17T13:49:34;8.10;;;1.45;;
19339;SDS011;9804;52.350;6.684;2022-07-17T13:52:00;1.58;;;1.02;;
19339;SDS011;9804;52.350;6.684;2022-07-17T13:54:25;2.83;;;1.17;;
19339;SDS011;9804;52.350;6.684;2022-07-17T13:56:51;3.30;;;1.20;;
19339;SDS011;9804;52.350;6.684;2022-07-17T13:59:17;2.83;;;1.67;;
19339;SDS011;9804;52.350;6.684;2022-07-17T14:01:43;3.33;;;1.13;;
19339;SDS011;9804;52.350;6.684;2022-07-17T14:04:08;3.35;;;1.80;;
19339;SDS011;9804;52.350;6.684;2022-07-17T14:06:34;4.43;;;1.60;;
19339;SDS011;9804;52.350;6.684;2022-07-17T14:08:59;3.92;;;1.60;;
19339;SDS011;9804;52.350;6.684;2022-07-17T14:11:24;3.55;;;1.17;;
19339;SDS011;9804;52.350;6.684;2022-07-17T14:13:49;4.30;;;2.13;;
19339;SDS011;9804;52.350;6.684;2022-07-17T14:16:16;4.70;;;1.83;;
19339;SDS011;9804;52.350;6.684;2022-07-17T14:18:42;5.78;;;1.77;;
19339;SDS011;9804;52.350;6.684;2022-07-17T14:21:26;4.97;;;1.80;;
19339;SDS011;9804;52.350;6.684;2022-07-17T14:23:59;3.40;;;1.80;;
19339;SDS011;9804;52.350;6.684;2022-07-17T14:26:25;3.85;;;2.00;;
19339;SDS011;9804;52.350;6.684;2022-07-17T14:28:50;3.08;;;1.90;;
19339;SDS011;9804;52.350;6.684;2022-07-17T14:31:16;3.75;;;2.15;;
19339;SDS011;9804;52.350;6.684;2022-07-17T14:33:42;4.32;;;2.10;;
19339;SDS011;9804;52.350;6.684;2022-07-17T14:36:08;4.43;;;2.40;;
19339;SDS011;9804;52.350;6.684;2022-07-17T14:38:34;2.95;;;2.10;;
19339;SDS011;9804;52.350;6.684;2022-07-17T14:40:59;3.08;;;1.77;;
19339;SDS011;9804;52.350;6.684;2022-07-17T14:43:25;4.07;;;2.03;;
19339;SDS011;9804;52.350;6.684;2022-07-17T14:45:50;3.33;;;2.00;;
19339;SDS011;9804;52.350;6.684;2022-07-17T14:48:15;6.10;;;2.40;;
19339;SDS011;9804;52.350;6.684;2022-07-17T14:50:41;5.47;;;2.33;;
19339;SDS011;9804;52.350;6.684;2022-07-17T14:53:06;4.95;;;1.88;;
19339;SDS011;9804;52.350;6.684;2022-07-17T14:55:32;5.55;;;2.20;;
19339;SDS011;9804;52.350;6.684;2022-07-17T14:57:57;5.53;;;2.38;;
19339;SDS011;9804;52.350;6.684;2022-07-17T15:00:23;2.75;;;2.08;;
19339;SDS011;9804;52.350;6.684;2022-07-17T15:02:48;3.42;;;2.20;;
19339;SDS011;9804;52.350;6.684;2022-07-17T15:05:13;4.20;;;2.35;;